sensor_id;sensor_type;location;lat;lon;timestamp;pressure;altitude;pressure_sealevel;temperature;humidity
51526;BME280;37611;51.794;21.590;2024-01-30T00:02:47;101845.98;;;0.00;100.00
51526;BME280;37611;51.794;21.590;2024-01-30T00:06:48;101841.86;;;-0.00;100.00
51526;BME280;37611;51.794;21.590;2024-01-30T00:10:50;101841.00;;;0.00;100.00
51526;BME280;37611;51.794;21.590;2024-01-30T00:14:52;101837.72;;;0.00;100.00
51526;BME280;37611;51.794;21.590;2024-01-30T00:18:54;101835.53;;;-0.03;100.00
51526;BME280;37611;51.794;21.590;2024-01-30T00:22:56;101834.55;;;-0.04;100.00
51526;BME280;37611;51.794;21.590;2024-01-30T00:26:57;101833.44;;;-0.08;100.00
51526;BME280;37611;51.794;21.590;2024-01-30T00:30:59;101833.66;;;-0.10;100.00
51526;BME280;37611;51.794;21.590;2024-01-30T00:35:01;101828.94;;;-0.14;100.00
51526;BME280;37611;51.794;21.590;2024-01-30T00:39:03;101825.39;;;-0.17;100.00
51526;BME280;37611;51.794;21.590;2024-01-30T00:43:08;101822.53;;;-0.19;100.00
51526;BME280;37611;51.794;21.590;2024-01-30T00:47:10;101818.98;;;-0.21;100.00
51526;BME280;37611;51.794;21.590;2024-01-30T00:51:11;101812.45;;;-0.22;100.00
51526;BME280;37611;51.794;21.590;2024-01-30T00:55:13;101810.95;;;-0.24;100.00
51526;BME280;37611;51.794;21.590;2024-01-30T00:59:15;101804.95;;;-0.25;100.00
51526;BME280;37611;51.794;21.590;2024-01-30T01:03:17;101803.27;;;-0.27;100.00
51526;BME280;37611;51.794;21.590;2024-01-30T01:07:19;101800.69;;;-0.27;100.00
51526;BME280;37611;51.794;21.590;2024-01-30T01:11:20;101795.20;;;-0.28;100.00
51526;BME280;37611;51.794;21.590;2024-01-30T01:15:22;101794.36;;;-0.29;100.00
51526;BME280;37611;51.794;21.590;2024-01-30T01:19:24;101793.04;;;-0.30;100.00
51526;BME280;37611;51.794;21.590;2024-01-30T01:23:26;101792.20;;;-0.32;100.00
51526;BME280;37611;51.794;21.590;2024-01-30T01:27:27;101781.39;;;-0.33;100.00
51526;BME280;37611;51.794;21.590;2024-01-30T01:31:29;101778.16;;;-0.35;100.00
51526;BME280;37611;51.794;21.590;2024-01-30T01:35:31;101778.00;;;-0.35;100.00
51526;BME280;37611;51.794;21.590;2024-01-30T01:39:32;101778.01;;;-0.35;100.00
51526;BME280;37611;51.794;21.590;2024-01-30T01:43:34;101779.44;;;-0.38;100.00
51526;BME280;37611;51.794;21.590;2024-01-30T01:47:36;101772.09;;;-0.39;100.00
51526;BME280;37611;51.794;21.590;2024-01-30T01:51:38;101769.08;;;-0.42;100.00
51526;BME280;37611;51.794;21.590;2024-01-30T01:55:42;101767.20;;;-0.44;100.00
51526;BME280;37611;51.794;21.590;2024-01-30T01:59:44;101765.66;;;-0.44;100.00
51526;BME280;37611;51.794;21.590;2024-01-30T02:03:46;101762.26;;;-0.45;100.00
51526;BME280;37611;51.794;21.590;2024-01-30T02:07:48;101760.36;;;-0.45;100.00
51526;BME280;37611;51.794;21.590;2024-01-30T02:11:50;101757.41;;;-0.45;100.00
51526;BME280;37611;51.794;21.590;2024-01-30T02:15:52;101760.67;;;-0.44;100.00
51526;BME280;37611;51.794;21.590;2024-01-30T02:19:54;101765.67;;;-0.44;100.00
51526;BME280;37611;51.794;21.590;2024-01-30T02:23:56;101761.20;;;-0.44;100.00
51526;BME280;37611;51.794;21.590;2024-01-30T02:27:59;101761.39;;;-0.45;100.00
51526;BME280;37611;51.794;21.590;2024-01-30T02:32:01;101756.03;;;-0.44;100.00
51526;BME280;37611;51.794;21.590;2024-01-30T02:36:03;101752.64;;;-0.46;100.00
51526;BME280;37611;51.794;21.590;2024-01-30T02:40:05;101750.30;;;-0.49;100.00
51526;BME280;37611;51.794;21.590;2024-01-30T02:44:07;101742.11;;;-0.52;100.00
51526;BME280;37611;51.794;21.590;2024-01-30T02:48:09;101742.28;;;-0.52;100.00
51526;BME280;37611;51.794;21.590;2024-01-30T02:52:10;101740.56;;;-0.52;100.00
51526;BME280;37611;51.794;21.590;2024-01-30T02:56:12;101736.06;;;-0.51;100.00
51526;BME280;37611;51.794;21.590;2024-01-30T03:00:15;101731.69;;;-0.48;100.00
51526;BME280;37611;51.794;21.590;2024-01-30T03:04:17;101734.15;;;-0.50;100.00
51526;BME280;37611;51.794;21.590;2024-01-30T03:08:18;101737.59;;;-0.50;100.00
51526;BME280;37611;51.794;21.590;2024-01-30T03:12:20;101735.73;;;-0.52;100.00
51526;BME280;37611;51.794;21.590;2024-01-30T03:16:22;101740.60;;;-0.54;100.00
51526;BME280;37611;51.794;21.590;2024-01-30T03:20:24;101741.14;;;-0.55;100.00
51526;BME280;37611;51.794;21.590;2024-01-30T03:24:26;101738.45;;;-0.57;100.00
51526;BME280;37611;51.794;21.590;2024-01-30T03:28:27;101734.88;;;-0.59;100.00
51526;BME280;37611;51.794;21.590;2024-01-30T03:32:29;101732.05;;;-0.62;100.00
51526;BME280;37611;51.794;21.590;2024-01-30T03:36:31;101730.16;;;-0.63;100.00
51526;BME280;37611;51.794;21.590;2024-01-30T03:40:35;101730.22;;;-0.65;100.00
51526;BME280;37611;51.794;21.590;2024-01-30T03:44:36;101733.02;;;-0.67;100.00
51526;BME280;37611;51.794;21.590;2024-01-30T03:48:38;101735.48;;;-0.69;100.00
51526;BME280;37611;51.794;21.590;2024-01-30T03:52:40;101733.46;;;-0.71;100.00
51526;BME280;37611;51.794;21.590;2024-01-30T03:56:42;101725.34;;;-0.76;100.00
51526;BME280;37611;51.794;21.590;2024-01-30T04:00:44;101723.38;;;-0.80;100.00
51526;BME280;37611;51.794;21.590;2024-01-30T04:04:46;101723.61;;;-0.83;100.00
51526;BME280;37611;51.794;21.590;2024-01-30T04:08:48;101724.76;;;-0.88;100.00
51526;BME280;37611;51.794;21.590;2024-01-30T04:12:49;101725.16;;;-0.90;100.00
51526;BME280;37611;51.794;21.590;2024-01-30T04:16:51;101721.13;;;-0.94;100.00
51526;BME280;37611;51.794;21.590;2024-01-30T04:20:53;101720.11;;;-0.94;100.00
51526;BME280;37611;51.794;21.590;2024-01-30T04:24:55;101715.88;;;-0.97;100.00
51526;BME280;37611;51.794;21.590;2024-01-30T04:28:56;101717.96;;;-0.99;100.00
51526;BME280;37611;51.794;21.590;2024-01-30T04:32:58;101719.31;;;-0.97;100.00
51526;BME280;37611;51.794;21.590;2024-01-30T04:37:00;101719.65;;;-0.97;100.00
51526;BME280;37611;51.794;21.590;2024-01-30T04:41:01;101722.39;;;-0.96;100.00
51526;BME280;37611;51.794;21.590;2024-01-30T04:45:03;101723.23;;;-0.96;100.00
51526;BME280;37611;51.794;21.590;2024-01-30T04:49:05;101717.46;;;-0.99;100.00
51526;BME280;37611;51.794;21.590;2024-01-30T04:53:09;101716.08;;;-1.06;100.00
51526;BME280;37611;51.794;21.590;2024-01-30T04:57:10;101713.04;;;-1.09;100.00
51526;BME280;37611;51.794;21.590;2024-01-30T05:01:16;101715.54;;;-1.12;100.00
51526;BME280;37611;51.794;21.590;2024-01-30T05:05:18;101714.02;;;-1.14;100.00
51526;BME280;37611;51.794;21.590;2024-01-30T05:09:20;101719.73;;;-1.15;100.00
51526;BME280;37611;51.794;21.590;2024-01-30T05:13:22;101722.01;;;-1.17;100.00
51526;BME280;37611;51.794;21.590;2024-01-30T05:17:24;101726.16;;;-1.18;100.00
51526;BME280;37611;51.794;21.590;2024-01-30T05:21:26;101727.17;;;-1.18;100.00
51526;BME280;37611;51.794;21.590;2024-01-30T05:25:28;101724.77;;;-1.17;100.00
51526;BME280;37611;51.794;21.590;2024-01-30T05:29:29;101728.54;;;-1.17;100.00
51526;BME280;37611;51.794;21.590;2024-01-30T05:33:31;101725.83;;;-1.19;100.00
51526;BME280;37611;51.794;21.590;2024-01-30T05:37:33;101721.90;;;-1.19;100.00
51526;BME280;37611;51.794;21.590;2024-01-30T05:41:35;101720.71;;;-1.21;100.00
51526;BME280;37611;51.794;21.590;2024-01-30T05:45:36;101721.41;;;-1.22;100.00
51526;BME280;37611;51.794;21.590;2024-01-30T05:49:38;101720.95;;;-1.23;100.00
51526;BME280;37611;51.794;21.590;2024-01-30T05:53:40;101721.50;;;-1.25;100.00
51526;BME280;37611;51.794;21.590;2024-01-30T05:57:42;101719.46;;;-1.27;100.00
51526;BME280;37611;51.794;21.590;2024-01-30T06:01:47;101720.19;;;-1.28;100.00
51526;BME280;37611;51.794;21.590;2024-01-30T06:05:49;101726.38;;;-1.28;100.00
51526;BME280;37611;51.794;21.590;2024-01-30T06:09:51;101725.02;;;-1.29;100.00
51526;BME280;37611;51.794;21.590;2024-01-30T06:13:53;101730.19;;;-1.30;100.00
51526;BME280;37611;51.794;21.590;2024-01-30T06:17:54;101732.94;;;-1.29;100.00
51526;BME280;37611;51.794;21.590;2024-01-30T06:21:56;101732.42;;;-1.29;100.00
51526;BME280;37611;51.794;21.590;2024-01-30T06:25:58;101729.84;;;-1.29;100.00
51526;BME280;37611;51.794;21.590;2024-01-30T06:29:59;101732.75;;;-1.28;100.00
51526;BME280;37611;51.794;21.590;2024-01-30T06:34:01;101730.65;;;-1.27;100.00
51526;BME280;37611;51.794;21.590;2024-01-30T06:38:03;101735.92;;;-1.24;100.00
51526;BME280;37611;51.794;21.590;2024-01-30T06:42:05;101740.67;;;-1.22;100.00
51526;BME280;37611;51.794;21.590;2024-01-30T06:46:06;101735.27;;;-1.18;100.00
51526;BME280;37611;51.794;21.590;2024-01-30T06:50:08;101733.50;;;-1.16;100.00
51526;BME280;37611;51.794;21.590;2024-01-30T06:54:10;101732.70;;;-1.11;100.00
51526;BME280;37611;51.794;21.590;2024-01-30T06:58:11;101733.77;;;-1.05;100.00
51526;BME280;37611;51.794;21.590;2024-01-30T07:02:13;101734.20;;;-0.94;100.00
51526;BME280;37611;51.794;21.590;2024-01-30T07:06:15;101737.83;;;-0.74;100.00
51526;BME280;37611;51.794;21.590;2024-01-30T07:10:17;101733.61;;;-0.49;100.00
51526;BME280;37611;51.794;21.590;2024-01-30T07:14:18;101736.98;;;-0.26;100.00
51526;BME280;37611;51.794;21.590;2024-01-30T07:18:20;101739.61;;;-0.02;100.00
51526;BME280;37611;51.794;21.590;2024-01-30T07:22:22;101735.75;;;0.25;100.00
51526;BME280;37611;51.794;21.590;2024-01-30T07:26:23;101730.08;;;0.42;100.00
51526;BME280;37611;51.794;21.590;2024-01-30T07:30:25;101736.80;;;0.60;100.00
51526;BME280;37611;51.794;21.590;2024-01-30T07:34:27;101736.75;;;0.73;100.00
51526;BME280;37611;51.794;21.590;2024-01-30T07:38:31;101737.25;;;0.80;100.00
51526;BME280;37611;51.794;21.590;2024-01-30T07:42:34;101737.66;;;0.88;100.00
51526;BME280;37611;51.794;21.590;2024-01-30T07:46:35;101731.73;;;1.07;100.00
51526;BME280;37611;51.794;21.590;2024-01-30T07:50:37;101737.23;;;1.29;100.00
51526;BME280;37611;51.794;21.590;2024-01-30T07:54:39;101737.53;;;1.46;100.00
51526;BME280;37611;51.794;21.590;2024-01-30T07:58:41;101730.56;;;1.53;100.00
51526;BME280;37611;51.794;21.590;2024-01-30T08:02:42;101730.65;;;1.61;100.00
51526;BME280;37611;51.794;21.590;2024-01-30T08:06:44;101732.42;;;1.75;100.00
51526;BME280;37611;51.794;21.590;2024-01-30T08:10:46;101737.18;;;1.96;100.00
51526;BME280;37611;51.794;21.590;2024-01-30T08:14:47;101733.42;;;2.24;100.00
51526;BME280;37611;51.794;21.590;2024-01-30T08:18:49;101734.23;;;2.44;100.00
51526;BME280;37611;51.794;21.590;2024-01-30T08:22:51;101737.91;;;2.57;100.00
51526;BME280;37611;51.794;21.590;2024-01-30T08:26:53;101741.66;;;2.85;100.00
51526;BME280;37611;51.794;21.590;2024-01-30T08:30:55;101734.79;;;3.14;100.00
51526;BME280;37611;51.794;21.590;2024-01-30T08:34:57;101730.55;;;3.34;100.00
51526;BME280;37611;51.794;21.590;2024-01-30T08:38:58;101725.65;;;3.39;100.00
51526;BME280;37611;51.794;21.590;2024-01-30T08:43:00;101729.11;;;3.60;100.00
51526;BME280;37611;51.794;21.590;2024-01-30T08:47:02;101729.75;;;3.77;100.00
51526;BME280;37611;51.794;21.590;2024-01-30T08:51:05;101728.73;;;3.88;100.00
51526;BME280;37611;51.794;21.590;2024-01-30T08:55:09;101721.42;;;4.13;100.00
51526;BME280;37611;51.794;21.590;2024-01-30T08:59:11;101718.10;;;4.29;100.00
51526;BME280;37611;51.794;21.590;2024-01-30T09:03:13;101714.92;;;4.57;100.00
51526;BME280;37611;51.794;21.590;2024-01-30T09:07:14;101713.94;;;4.63;100.00
51526;BME280;37611;51.794;21.590;2024-01-30T09:11:16;101711.06;;;4.65;100.00
51526;BME280;37611;51.794;21.590;2024-01-30T09:15:18;101711.70;;;4.85;100.00
51526;BME280;37611;51.794;21.590;2024-01-30T09:19:20;101706.92;;;4.97;99.95
51526;BME280;37611;51.794;21.590;2024-01-30T09:23:22;101706.60;;;5.04;100.00
51526;BME280;37611;51.794;21.590;2024-01-30T09:27:24;101707.66;;;5.21;100.00
51526;BME280;37611;51.794;21.590;2024-01-30T09:31:26;101706.56;;;5.40;100.00
51526;BME280;37611;51.794;21.590;2024-01-30T09:35:27;101708.27;;;5.65;99.78
51526;BME280;37611;51.794;21.590;2024-01-30T09:39:29;101703.31;;;5.97;100.00
51526;BME280;37611;51.794;21.590;2024-01-30T09:43:33;101702.19;;;6.08;97.68
51526;BME280;37611;51.794;21.590;2024-01-30T09:47:43;101699.59;;;6.15;96.81
51526;BME280;37611;51.794;21.590;2024-01-30T09:51:46;101700.07;;;6.22;95.17
51526;BME280;37611;51.794;21.590;2024-01-30T09:55:50;101694.80;;;6.32;93.86
51526;BME280;37611;51.794;21.590;2024-01-30T09:59:52;101691.39;;;6.38;91.80
51526;BME280;37611;51.794;21.590;2024-01-30T10:03:55;101682.63;;;6.42;91.73
51526;BME280;37611;51.794;21.590;2024-01-30T10:07:57;101678.72;;;6.47;90.74
51526;BME280;37611;51.794;21.590;2024-01-30T10:11:59;101673.67;;;6.75;90.08
51526;BME280;37611;51.794;21.590;2024-01-30T10:16:01;101669.88;;;6.83;88.48
51526;BME280;37611;51.794;21.590;2024-01-30T10:20:05;101667.61;;;6.90;86.59
51526;BME280;37611;51.794;21.590;2024-01-30T10:24:07;101660.77;;;6.84;85.35
51526;BME280;37611;51.794;21.590;2024-01-30T10:28:09;101661.83;;;6.90;84.37
51526;BME280;37611;51.794;21.590;2024-01-30T10:32:11;101655.40;;;6.99;84.61
51526;BME280;37611;51.794;21.590;2024-01-30T10:36:13;101648.18;;;7.12;83.36
51526;BME280;37611;51.794;21.590;2024-01-30T10:40:17;101642.90;;;7.37;85.05
51526;BME280;37611;51.794;21.590;2024-01-30T10:44:22;101634.84;;;7.64;82.09
51526;BME280;37611;51.794;21.590;2024-01-30T10:48:29;101632.11;;;7.63;80.23
51526;BME280;37611;51.794;21.590;2024-01-30T10:52:32;101632.96;;;7.72;80.79
51526;BME280;37611;51.794;21.590;2024-01-30T10:56:35;101622.11;;;7.86;78.48
51526;BME280;37611;51.794;21.590;2024-01-30T11:00:37;101616.34;;;8.01;79.09
51526;BME280;37611;51.794;21.590;2024-01-30T11:04:43;101615.61;;;8.23;78.47
51526;BME280;37611;51.794;21.590;2024-01-30T11:08:45;101611.79;;;8.43;76.83
51526;BME280;37611;51.794;21.590;2024-01-30T11:12:47;101605.78;;;8.47;75.05
51526;BME280;37611;51.794;21.590;2024-01-30T11:16:51;101598.87;;;8.48;75.56
51526;BME280;37611;51.794;21.590;2024-01-30T11:20:56;101594.19;;;8.66;74.59
51526;BME280;37611;51.794;21.590;2024-01-30T11:24:58;101590.64;;;8.80;73.65
51526;BME280;37611;51.794;21.590;2024-01-30T11:29:03;101588.63;;;8.85;71.14
51526;BME280;37611;51.794;21.590;2024-01-30T11:33:07;101579.29;;;8.86;68.47
51526;BME280;37611;51.794;21.590;2024-01-30T11:37:12;101573.10;;;8.68;67.22
51526;BME280;37611;51.794;21.590;2024-01-30T11:41:15;101568.30;;;8.72;68.53
51526;BME280;37611;51.794;21.590;2024-01-30T11:45:17;101563.52;;;8.97;68.51
51526;BME280;37611;51.794;21.590;2024-01-30T11:49:19;101560.69;;;9.10;66.18
51526;BME280;37611;51.794;21.590;2024-01-30T11:53:21;101552.22;;;9.01;64.76
51526;BME280;37611;51.794;21.590;2024-01-30T11:57:23;101547.15;;;9.03;65.47
51526;BME280;37611;51.794;21.590;2024-01-30T12:01:29;101549.73;;;9.12;64.32
51526;BME280;37611;51.794;21.590;2024-01-30T12:05:30;101549.05;;;9.09;64.07
51526;BME280;37611;51.794;21.590;2024-01-30T12:09:32;101545.77;;;9.21;63.99
51526;BME280;37611;51.794;21.590;2024-01-30T12:13:34;101544.45;;;9.28;64.20
51526;BME280;37611;51.794;21.590;2024-01-30T12:17:36;101539.10;;;9.40;64.50
51526;BME280;37611;51.794;21.590;2024-01-30T12:21:38;101538.45;;;9.51;63.17
51526;BME280;37611;51.794;21.590;2024-01-30T12:25:40;101539.07;;;9.48;62.94
51526;BME280;37611;51.794;21.590;2024-01-30T12:29:42;101535.60;;;9.54;63.13
51526;BME280;37611;51.794;21.590;2024-01-30T12:33:43;101534.82;;;9.70;62.98
51526;BME280;37611;51.794;21.590;2024-01-30T12:37:47;101533.48;;;9.82;61.91
51526;BME280;37611;51.794;21.590;2024-01-30T12:41:49;101526.15;;;9.69;61.67
51526;BME280;37611;51.794;21.590;2024-01-30T12:45:52;101522.16;;;9.86;63.10
51526;BME280;37611;51.794;21.590;2024-01-30T12:49:54;101520.86;;;10.01;62.68
51526;BME280;37611;51.794;21.590;2024-01-30T12:53:55;101523.20;;;10.18;63.15
51526;BME280;37611;51.794;21.590;2024-01-30T12:57:57;101518.08;;;10.13;61.03
51526;BME280;37611;51.794;21.590;2024-01-30T13:02:00;101514.87;;;10.14;62.56
51526;BME280;37611;51.794;21.590;2024-01-30T13:06:02;101512.27;;;10.41;62.78
51526;BME280;37611;51.794;21.590;2024-01-30T13:10:04;101504.88;;;10.46;61.83
51526;BME280;37611;51.794;21.590;2024-01-30T13:14:07;101509.39;;;10.46;62.26
51526;BME280;37611;51.794;21.590;2024-01-30T13:18:09;101509.91;;;10.49;61.13
51526;BME280;37611;51.794;21.590;2024-01-30T13:22:11;101505.78;;;10.45;61.42
51526;BME280;37611;51.794;21.590;2024-01-30T13:26:13;101502.13;;;10.54;62.00
51526;BME280;37611;51.794;21.590;2024-01-30T13:30:15;101499.92;;;10.58;61.19
51526;BME280;37611;51.794;21.590;2024-01-30T13:34:16;101494.80;;;10.56;60.27
51526;BME280;37611;51.794;21.590;2024-01-30T13:38:18;101492.89;;;10.42;60.85
51526;BME280;37611;51.794;21.590;2024-01-30T13:42:20;101489.44;;;10.51;61.52
51526;BME280;37611;51.794;21.590;2024-01-30T13:46:22;101483.81;;;10.39;61.06
51526;BME280;37611;51.794;21.590;2024-01-30T13:50:24;101479.39;;;10.23;61.11
51526;BME280;37611;51.794;21.590;2024-01-30T13:54:26;101474.02;;;10.25;61.86
51526;BME280;37611;51.794;21.590;2024-01-30T13:58:27;101474.48;;;10.28;62.10
51526;BME280;37611;51.794;21.590;2024-01-30T14:02:29;101476.39;;;10.43;62.37
51526;BME280;37611;51.794;21.590;2024-01-30T14:06:31;101482.52;;;10.43;62.51
51526;BME280;37611;51.794;21.590;2024-01-30T14:10:33;101479.25;;;10.01;62.67
51526;BME280;37611;51.794;21.590;2024-01-30T14:14:35;101483.11;;;9.55;62.47
51526;BME280;37611;51.794;21.590;2024-01-30T14:18:37;101481.38;;;9.20;63.41
51526;BME280;37611;51.794;21.590;2024-01-30T14:22:38;101480.85;;;8.92;63.48
51526;BME280;37611;51.794;21.590;2024-01-30T14:26:40;101479.20;;;8.65;64.53
51526;BME280;37611;51.794;21.590;2024-01-30T14:30:42;101473.13;;;8.46;65.05
51526;BME280;37611;51.794;21.590;2024-01-30T14:34:45;101474.38;;;8.27;65.28
51526;BME280;37611;51.794;21.590;2024-01-30T14:38:47;101473.69;;;8.08;66.39
51526;BME280;37611;51.794;21.590;2024-01-30T14:42:48;101474.89;;;7.95;66.43
51526;BME280;37611;51.794;21.590;2024-01-30T14:46:50;101471.82;;;7.78;66.84
51526;BME280;37611;51.794;21.590;2024-01-30T14:50:53;101474.73;;;7.60;67.17
51526;BME280;37611;51.794;21.590;2024-01-30T14:54:54;101472.85;;;7.36;67.90
51526;BME280;37611;51.794;21.590;2024-01-30T14:58:56;101476.39;;;7.19;68.45
51526;BME280;37611;51.794;21.590;2024-01-30T15:02:58;101477.98;;;7.00;69.07
51526;BME280;37611;51.794;21.590;2024-01-30T15:07:00;101477.67;;;6.83;69.11
51526;BME280;37611;51.794;21.590;2024-01-30T15:11:01;101477.58;;;6.61;69.71
51526;BME280;37611;51.794;21.590;2024-01-30T15:15:07;101480.45;;;6.42;70.42
51526;BME280;37611;51.794;21.590;2024-01-30T15:19:09;101477.23;;;6.25;71.00
51526;BME280;37611;51.794;21.590;2024-01-30T15:23:11;101481.45;;;6.09;71.29
51526;BME280;37611;51.794;21.590;2024-01-30T15:27:12;101484.61;;;5.93;72.04
51526;BME280;37611;51.794;21.590;2024-01-30T15:31:14;101484.49;;;5.79;72.52
51526;BME280;37611;51.794;21.590;2024-01-30T15:35:16;101483.76;;;5.67;72.83
51526;BME280;37611;51.794;21.590;2024-01-30T15:39:18;101485.10;;;5.55;73.45
51526;BME280;37611;51.794;21.590;2024-01-30T15:43:19;101480.52;;;5.44;73.76
51526;BME280;37611;51.794;21.590;2024-01-30T15:47:21;101479.52;;;5.33;74.48
51526;BME280;37611;51.794;21.590;2024-01-30T15:51:23;101475.60;;;5.22;74.72
51526;BME280;37611;51.794;21.590;2024-01-30T15:55:25;101473.33;;;5.09;75.53
51526;BME280;37611;51.794;21.590;2024-01-30T15:59:27;101475.23;;;4.96;76.31
51526;BME280;37611;51.794;21.590;2024-01-30T16:03:29;101468.32;;;4.82;76.79
51526;BME280;37611;51.794;21.590;2024-01-30T16:07:31;101469.23;;;4.71;77.89
51526;BME280;37611;51.794;21.590;2024-01-30T16:11:36;101472.93;;;4.60;78.59
51526;BME280;37611;51.794;21.590;2024-01-30T16:15:37;101472.64;;;4.48;78.78
51526;BME280;37611;51.794;21.590;2024-01-30T16:19:41;101469.61;;;4.32;79.37
51526;BME280;37611;51.794;21.590;2024-01-30T16:23:43;101469.02;;;4.20;80.22
51526;BME280;37611;51.794;21.590;2024-01-30T16:27:44;101470.09;;;4.08;80.88
51526;BME280;37611;51.794;21.590;2024-01-30T16:31:46;101467.00;;;3.97;82.73
51526;BME280;37611;51.794;21.590;2024-01-30T16:35:48;101466.80;;;3.87;82.93
51526;BME280;37611;51.794;21.590;2024-01-30T16:39:50;101469.29;;;3.78;83.12
51526;BME280;37611;51.794;21.590;2024-01-30T16:43:51;101464.63;;;3.70;82.76
51526;BME280;37611;51.794;21.590;2024-01-30T16:47:53;101465.29;;;3.64;83.13
51526;BME280;37611;51.794;21.590;2024-01-30T16:51:55;101461.04;;;3.55;83.36
51526;BME280;37611;51.794;21.590;2024-01-30T16:55:56;101461.47;;;3.42;83.41
51526;BME280;37611;51.794;21.590;2024-01-30T16:59:58;101460.86;;;3.32;83.96
51526;BME280;37611;51.794;21.590;2024-01-30T17:04:00;101463.14;;;3.24;84.27
51526;BME280;37611;51.794;21.590;2024-01-30T17:08:01;101460.87;;;3.16;84.95
51526;BME280;37611;51.794;21.590;2024-01-30T17:12:03;101455.61;;;3.10;85.54
51526;BME280;37611;51.794;21.590;2024-01-30T17:16:06;101451.41;;;3.03;85.87
51526;BME280;37611;51.794;21.590;2024-01-30T17:20:08;101452.77;;;3.00;87.00
51526;BME280;37611;51.794;21.590;2024-01-30T17:24:13;101447.61;;;2.99;87.91
51526;BME280;37611;51.794;21.590;2024-01-30T17:28:16;101451.52;;;3.01;88.05
51526;BME280;37611;51.794;21.590;2024-01-30T17:32:18;101452.79;;;3.04;87.99
51526;BME280;37611;51.794;21.590;2024-01-30T17:36:20;101454.52;;;3.04;88.35
51526;BME280;37611;51.794;21.590;2024-01-30T17:40:23;101450.05;;;3.03;88.44
51526;BME280;37611;51.794;21.590;2024-01-30T17:44:25;101446.64;;;3.02;88.78
51526;BME280;37611;51.794;21.590;2024-01-30T17:48:26;101447.10;;;3.00;89.24
51526;BME280;37611;51.794;21.590;2024-01-30T17:52:28;101446.27;;;2.94;89.43
51526;BME280;37611;51.794;21.590;2024-01-30T17:56:30;101439.34;;;2.86;90.37
51526;BME280;37611;51.794;21.590;2024-01-30T18:00:32;101438.81;;;2.79;91.50
51526;BME280;37611;51.794;21.590;2024-01-30T18:04:37;101440.27;;;2.70;92.24
51526;BME280;37611;51.794;21.590;2024-01-30T18:08:39;101440.73;;;2.63;91.10
51526;BME280;37611;51.794;21.590;2024-01-30T18:12:40;101441.62;;;2.58;91.24
51526;BME280;37611;51.794;21.590;2024-01-30T18:16:43;101437.27;;;2.51;92.47
51526;BME280;37611;51.794;21.590;2024-01-30T18:20:45;101431.88;;;2.48;92.35
51526;BME280;37611;51.794;21.590;2024-01-30T18:24:46;101432.55;;;2.44;92.50
51526;BME280;37611;51.794;21.590;2024-01-30T18:28:48;101429.27;;;2.39;92.94
51526;BME280;37611;51.794;21.590;2024-01-30T18:32:50;101429.53;;;2.37;93.46
51526;BME280;37611;51.794;21.590;2024-01-30T18:36:53;101426.44;;;2.33;93.33
51526;BME280;37611;51.794;21.590;2024-01-30T18:40:59;101425.53;;;2.30;94.17
51526;BME280;37611;51.794;21.590;2024-01-30T18:45:01;101425.90;;;2.25;94.50
51526;BME280;37611;51.794;21.590;2024-01-30T18:49:02;101428.73;;;2.20;94.07
51526;BME280;37611;51.794;21.590;2024-01-30T18:53:04;101427.14;;;2.12;94.70
51526;BME280;37611;51.794;21.590;2024-01-30T18:57:06;101427.32;;;2.07;94.94
51526;BME280;37611;51.794;21.590;2024-01-30T19:01:08;101432.35;;;2.03;94.66
51526;BME280;37611;51.794;21.590;2024-01-30T19:05:09;101428.19;;;1.99;95.07
51526;BME280;37611;51.794;21.590;2024-01-30T19:09:11;101427.61;;;1.96;95.44
51526;BME280;37611;51.794;21.590;2024-01-30T19:13:14;101429.04;;;1.95;95.59
51526;BME280;37611;51.794;21.590;2024-01-30T19:17:16;101430.39;;;1.96;96.08
51526;BME280;37611;51.794;21.590;2024-01-30T19:21:17;101425.67;;;1.97;96.50
51526;BME280;37611;51.794;21.590;2024-01-30T19:25:19;101425.98;;;1.98;96.85
51526;BME280;37611;51.794;21.590;2024-01-30T19:29:21;101424.99;;;1.96;96.81
51526;BME280;37611;51.794;21.590;2024-01-30T19:33:23;101425.04;;;1.95;97.19
51526;BME280;37611;51.794;21.590;2024-01-30T19:37:25;101425.77;;;1.94;97.65
51526;BME280;37611;51.794;21.590;2024-01-30T19:41:27;101420.09;;;1.93;97.96
51526;BME280;37611;51.794;21.590;2024-01-30T19:45:30;101417.82;;;1.90;97.89
51526;BME280;37611;51.794;21.590;2024-01-30T19:49:32;101414.63;;;1.88;98.06
51526;BME280;37611;51.794;21.590;2024-01-30T19:53:34;101415.88;;;1.87;98.50
51526;BME280;37611;51.794;21.590;2024-01-30T19:57:36;101413.38;;;1.85;98.59
51526;BME280;37611;51.794;21.590;2024-01-30T20:01:38;101407.00;;;1.84;99.25
51526;BME280;37611;51.794;21.590;2024-01-30T20:05:40;101409.80;;;1.83;99.22
51526;BME280;37611;51.794;21.590;2024-01-30T20:09:41;101405.10;;;1.80;99.72
51526;BME280;37611;51.794;21.590;2024-01-30T20:13:43;101404.80;;;1.79;99.86
51526;BME280;37611;51.794;21.590;2024-01-30T20:17:45;101396.05;;;1.78;100.00
51526;BME280;37611;51.794;21.590;2024-01-30T20:21:47;101396.59;;;1.77;100.00
51526;BME280;37611;51.794;21.590;2024-01-30T20:25:48;101391.70;;;1.75;100.00
51526;BME280;37611;51.794;21.590;2024-01-30T20:29:51;101393.59;;;1.75;100.00
51526;BME280;37611;51.794;21.590;2024-01-30T20:33:53;101391.61;;;1.72;100.00
51526;BME280;37611;51.794;21.590;2024-01-30T20:37:54;101388.47;;;1.68;100.00
51526;BME280;37611;51.794;21.590;2024-01-30T20:41:56;101383.91;;;1.66;100.00
51526;BME280;37611;51.794;21.590;2024-01-30T20:45:58;101382.21;;;1.65;100.00
51526;BME280;37611;51.794;21.590;2024-01-30T20:49:59;101381.92;;;1.64;100.00